createdAt,value
2019-05-20T00:02:23.190Z,11.95
2019-05-20T00:04:40.983Z,12.45
2019-05-20T00:07:09.467Z,12.35
2019-05-20T00:09:37.984Z,15.10
2019-05-20T00:12:06.467Z,12.07
2019-05-20T00:14:34.966Z,14.03
2019-05-20T00:17:03.448Z,12.03
2019-05-20T00:19:31.958Z,13.80
2019-05-20T00:22:00.438Z,13.03
2019-05-20T00:24:28.956Z,13.60
2019-05-20T00:26:57.434Z,13.43
2019-05-20T00:29:25.938Z,12.50
2019-05-20T00:31:54.417Z,13.03
2019-05-20T00:34:34.788Z,14.87
2019-05-20T00:36:53.123Z,13.10
2019-05-20T00:39:21.633Z,12.60
2019-05-20T00:41:50.115Z,13.08
2019-05-20T00:44:19.066Z,13.68
2019-05-20T00:46:47.547Z,13.90
2019-05-20T00:49:16.746Z,11.63
2019-05-20T00:51:45.473Z,13.22
2019-05-20T00:54:14.099Z,13.83
2019-05-20T00:56:42.671Z,14.10
2019-05-20T00:59:11.521Z,14.33
2019-05-20T01:01:40.030Z,12.83
2019-05-20T01:04:08.534Z,14.60
2019-05-20T01:06:37.029Z,13.45
2019-05-20T01:09:07.880Z,11.97
2019-05-20T01:11:36.386Z,11.78
2019-05-20T01:14:05.536Z,12.15
2019-05-20T01:16:34.082Z,12.25
2019-05-20T01:19:02.657Z,12.90
2019-05-20T01:21:31.147Z,12.25
2019-05-20T01:23:59.657Z,12.37
2019-05-20T01:26:28.167Z,13.32
2019-05-20T01:28:56.656Z,13.97
2019-05-20T01:31:25.449Z,11.53
2019-05-20T01:33:54.133Z,11.93
2019-05-20T01:36:22.644Z,14.53
2019-05-20T01:38:51.136Z,12.40
2019-05-20T01:41:19.662Z,11.85
2019-05-20T01:43:48.723Z,13.90
2019-05-20T01:46:17.299Z,14.50
2019-05-20T01:48:46.068Z,13.75
2019-05-20T01:51:14.587Z,12.33
2019-05-20T01:53:43.113Z,12.33
2019-05-20T01:56:11.779Z,11.63
2019-05-20T01:58:40.334Z,12.87
2019-05-20T02:01:08.999Z,11.53
2019-05-20T02:03:37.477Z,17.40
2019-05-20T02:06:06.126Z,11.80
2019-05-20T02:08:34.622Z,10.90
2019-05-20T02:13:56.486Z,10.60
2019-05-20T02:16:34.387Z,13.40
2019-05-20T02:24:56.254Z,10.67
2019-05-20T02:27:24.833Z,13.47
2019-05-20T02:29:53.301Z,12.07
2019-05-20T02:32:32.525Z,12.10
2019-05-20T02:35:03.535Z,13.13
2019-05-20T02:37:32.044Z,12.23
2019-05-20T02:40:07.709Z,13.73
2019-05-20T02:42:38.049Z,13.87
2019-05-20T02:45:08.171Z,12.43
2019-05-20T02:47:55.062Z,13.03
2019-05-20T02:50:11.605Z,13.13
2019-05-20T02:52:40.219Z,13.57
2019-05-20T02:55:09.237Z,11.67
2019-05-20T02:57:37.748Z,13.57
2019-05-20T03:00:07.788Z,11.83
2019-05-20T03:02:36.301Z,13.23
2019-05-20T03:05:06.090Z,12.47
2019-05-20T03:07:34.609Z,12.47
2019-05-20T03:10:03.105Z,11.73
2019-05-20T03:12:31.618Z,13.40
2019-05-20T03:15:00.110Z,14.00
2019-05-20T03:17:28.675Z,13.80
2019-05-20T03:19:57.166Z,14.27
2019-05-20T03:22:25.689Z,15.23
2019-05-20T03:24:54.179Z,19.97
2019-05-20T03:27:22.693Z,15.03
2019-05-20T03:29:51.229Z,13.40
2019-05-20T03:32:19.741Z,14.58
2019-05-20T03:34:58.802Z,11.97
2019-05-20T03:37:18.518Z,11.97
2019-05-20T03:39:46.991Z,10.87
2019-05-20T03:42:15.499Z,13.75
2019-05-20T03:44:43.989Z,13.00
2019-05-20T03:47:12.497Z,12.73
2019-05-20T03:49:40.982Z,13.83
2019-05-20T03:52:09.498Z,14.23
2019-05-20T03:54:37.999Z,13.08
2019-05-20T03:57:06.504Z,16.20
2019-05-20T03:59:34.996Z,14.90
2019-05-20T04:02:03.579Z,19.60
2019-05-20T04:04:32.066Z,14.50
2019-05-20T04:07:00.568Z,16.43
2019-05-20T04:09:29.057Z,16.15
2019-05-20T04:11:57.581Z,14.43
2019-05-20T04:14:26.094Z,15.15
2019-05-20T04:16:54.585Z,14.73
2019-05-20T04:19:23.119Z,16.47
2019-05-20T04:21:51.632Z,21.30
2019-05-20T04:24:20.186Z,17.43
2019-05-20T04:26:51.744Z,14.78
2019-05-20T04:29:20.230Z,15.55
2019-05-20T04:31:49.012Z,14.83
2019-05-20T04:34:17.497Z,17.85
2019-05-20T04:36:45.988Z,15.15
2019-05-20T04:39:14.497Z,14.15
2019-05-20T04:41:42.987Z,13.97
2019-05-20T04:44:11.491Z,13.98
2019-05-20T04:46:40.112Z,16.10
2019-05-20T04:49:08.619Z,15.18
2019-05-20T04:51:37.108Z,16.95
2019-05-20T04:54:05.623Z,13.62
2019-05-20T04:56:34.116Z,20.92
2019-05-20T04:59:02.662Z,19.57
2019-05-20T05:01:31.279Z,16.48
2019-05-20T05:03:59.790Z,16.85
2019-05-20T05:06:28.286Z,20.25
2019-05-20T05:08:56.792Z,19.65
2019-05-20T05:11:25.417Z,21.55
2019-05-20T05:13:54.158Z,20.37
2019-05-20T05:16:23.578Z,19.10
2019-05-20T05:18:52.093Z,17.30
2019-05-20T05:21:20.581Z,15.53
2019-05-20T05:23:58.762Z,17.25
2019-05-20T05:26:19.378Z,19.27
2019-05-20T05:28:47.955Z,18.52
2019-05-20T05:31:16.439Z,24.27
2019-05-20T05:33:45.015Z,21.02
2019-05-20T05:36:13.507Z,19.07
2019-05-20T05:38:42.032Z,20.55
2019-05-20T05:41:10.528Z,17.32
2019-05-20T05:43:39.040Z,19.42
2019-05-20T05:46:07.535Z,17.52
2019-05-20T05:48:36.046Z,17.45
2019-05-20T05:51:04.545Z,16.93
2019-05-20T05:53:33.062Z,19.92
2019-05-20T05:56:01.565Z,19.32
2019-05-20T05:58:30.077Z,16.87
2019-05-20T06:00:58.563Z,19.17
2019-05-20T06:03:27.092Z,15.53
2019-05-20T06:06:10.677Z,16.00
2019-05-20T06:08:25.798Z,15.25
2019-05-20T06:10:54.280Z,15.35
2019-05-20T06:13:22.792Z,15.30
2019-05-20T06:15:54.515Z,11.45
2019-05-20T06:18:21.703Z,12.68
2019-05-20T06:20:50.214Z,11.35
2019-05-20T06:23:18.697Z,11.38
2019-05-20T06:25:47.212Z,10.15
2019-05-20T06:28:15.701Z,10.30
2019-05-20T06:30:45.151Z,11.78
2019-05-20T06:33:13.656Z,10.30
2019-05-20T06:35:42.388Z,10.03
2019-05-20T06:38:12.652Z,10.30
2019-05-20T06:40:41.720Z,11.85
2019-05-20T06:43:10.200Z,12.05
2019-05-20T06:45:38.704Z,12.03
2019-05-20T06:48:07.318Z,12.98
2019-05-20T06:50:35.933Z,10.55
2019-05-20T06:53:04.402Z,21.62
2019-05-20T06:55:32.916Z,13.48
2019-05-20T06:58:01.394Z,11.93
2019-05-20T07:00:34.747Z,14.30
2019-05-20T07:03:04.174Z,15.40
2019-05-20T07:05:32.758Z,16.30
2019-05-20T07:08:01.563Z,14.65
2019-05-20T07:10:30.268Z,13.68
2019-05-20T07:12:58.750Z,14.63
2019-05-20T07:15:27.266Z,14.10
2019-05-20T07:17:55.752Z,21.50
2019-05-20T07:20:24.253Z,14.85
2019-05-20T07:22:56.109Z,15.72
2019-05-20T07:25:23.002Z,16.20
2019-05-20T07:27:51.475Z,16.05
2019-05-20T07:30:20.151Z,17.73
2019-05-20T07:32:48.637Z,17.23
2019-05-20T07:35:29.448Z,16.60
2019-05-20T07:37:47.374Z,20.52
2019-05-20T07:40:18.959Z,19.60
2019-05-20T07:42:47.420Z,19.48
2019-05-20T07:45:15.999Z,15.03
2019-05-20T07:47:44.546Z,15.78
2019-05-20T07:50:13.490Z,19.30
2019-05-20T07:52:42.141Z,16.77
2019-05-20T07:55:10.800Z,17.77
2019-05-20T07:57:42.086Z,19.45
2019-05-20T08:00:11.285Z,17.25
2019-05-20T08:02:40.097Z,18.30
2019-05-20T08:05:09.186Z,19.12
2019-05-20T08:07:51.127Z,16.00
2019-05-20T08:10:08.310Z,17.37
2019-05-20T08:12:36.820Z,19.48
2019-05-20T08:15:08.737Z,16.23
2019-05-20T08:17:37.355Z,15.08
2019-05-20T08:20:07.045Z,17.87
2019-05-20T08:22:35.558Z,17.30
2019-05-20T08:25:06.691Z,17.57
2019-05-20T08:27:35.590Z,15.15
2019-05-20T08:30:07.054Z,16.20
2019-05-20T08:32:35.553Z,15.85
2019-05-20T08:35:05.816Z,17.15
2019-05-20T08:37:44.720Z,15.85
2019-05-20T08:40:05.645Z,16.32
2019-05-20T08:42:34.234Z,17.82
2019-05-20T08:45:03.401Z,15.00
2019-05-20T08:47:33.066Z,18.40
2019-05-20T08:50:03.868Z,18.17
2019-05-20T08:52:31.884Z,17.57
2019-05-20T08:55:00.409Z,16.25
2019-05-20T08:57:28.936Z,20.55
2019-05-20T08:59:57.493Z,23.62
2019-05-20T09:02:25.993Z,17.12
2019-05-20T09:04:54.497Z,15.93
2019-05-20T09:07:23.051Z,15.13
2019-05-20T09:09:51.780Z,15.20
2019-05-20T09:12:20.295Z,13.80
2019-05-20T09:14:48.790Z,14.80
2019-05-20T09:17:17.326Z,13.65
2019-05-20T09:19:47.054Z,13.03
2019-05-20T09:22:15.804Z,11.83
2019-05-20T09:24:44.986Z,12.78
2019-05-20T09:27:13.615Z,13.70
2019-05-20T09:29:42.110Z,11.53
2019-05-20T09:32:10.617Z,15.83
2019-05-20T09:34:39.119Z,12.37
2019-05-20T09:37:07.668Z,12.00
2019-05-20T09:39:36.168Z,16.05
2019-05-20T09:42:04.759Z,13.50
2019-05-20T09:44:33.239Z,16.20
2019-05-20T09:47:01.764Z,15.83
2019-05-20T09:49:30.285Z,15.18
2019-05-20T09:51:58.821Z,17.12
2019-05-20T09:54:27.292Z,18.17
2019-05-20T09:56:55.809Z,14.80
2019-05-20T09:59:24.306Z,15.38
2019-05-20T10:01:52.822Z,13.68
2019-05-20T10:04:21.318Z,13.95
2019-05-20T10:06:49.896Z,15.32
2019-05-20T10:09:18.371Z,18.07
2019-05-20T10:11:46.896Z,15.88
2019-05-20T10:14:15.380Z,14.43
2019-05-20T10:16:43.907Z,14.30
2019-05-20T10:19:12.389Z,16.80
2019-05-20T10:21:40.892Z,13.93
2019-05-20T10:24:09.381Z,15.43
2019-05-20T10:26:37.963Z,14.43
2019-05-20T10:29:06.447Z,16.02
2019-05-20T10:31:34.962Z,13.90
2019-05-20T10:34:03.433Z,18.25
2019-05-20T10:36:31.945Z,14.43
2019-05-20T10:39:00.510Z,13.98
2019-05-20T10:41:29.749Z,19.35
2019-05-20T10:43:58.274Z,13.85
2019-05-20T10:46:26.747Z,14.10
2019-05-20T10:48:55.248Z,16.00
2019-05-20T10:51:23.735Z,18.27
2019-05-20T10:53:52.243Z,14.33
2019-05-20T10:56:20.724Z,13.98
2019-05-20T10:58:49.230Z,14.90
2019-05-20T11:01:17.740Z,15.80
2019-05-20T11:03:46.244Z,15.25
2019-05-20T11:06:15.073Z,15.20
2019-05-20T11:08:43.586Z,16.12
2019-05-20T11:11:14.249Z,19.77
2019-05-20T11:13:42.454Z,15.60
2019-05-20T11:16:10.932Z,16.52
2019-05-20T11:18:39.446Z,18.00
2019-05-20T11:21:07.959Z,16.37
2019-05-20T11:23:36.529Z,16.67
2019-05-20T11:26:05.059Z,18.82
2019-05-20T11:28:33.572Z,18.57
2019-05-20T11:31:02.051Z,16.00
2019-05-20T11:33:30.557Z,20.88
2019-05-20T11:35:59.037Z,19.10
2019-05-20T11:38:27.544Z,15.98
2019-05-20T11:40:56.022Z,18.27
2019-05-20T11:43:24.533Z,16.52
2019-05-20T11:45:53.083Z,15.40
2019-05-20T11:48:21.599Z,15.25
2019-05-20T11:50:50.080Z,19.52
2019-05-20T11:53:18.665Z,17.17
2019-05-20T11:55:47.149Z,16.32
2019-05-20T11:58:16.598Z,16.52
2019-05-20T12:00:45.244Z,15.90
2019-05-20T12:03:13.797Z,17.75
2019-05-20T12:05:42.387Z,16.80
2019-05-20T12:08:10.893Z,19.15
2019-05-20T12:10:39.405Z,16.02
2019-05-20T12:13:07.915Z,19.25
2019-05-20T12:15:36.401Z,19.57
2019-05-20T12:18:04.986Z,21.15
2019-05-20T12:20:33.534Z,19.85
2019-05-20T12:23:02.060Z,20.27
2019-05-20T12:25:30.544Z,20.43
2019-05-20T12:27:59.056Z,18.73
2019-05-20T12:30:27.558Z,17.67
2019-05-20T12:33:17.361Z,10.58
2019-05-20T12:35:26.253Z,8.80
2019-05-20T12:37:54.719Z,9.73
2019-05-20T12:40:23.980Z,5.80
2019-05-20T12:42:52.453Z,5.90
2019-05-20T12:45:21.113Z,5.50
2019-05-20T12:47:49.583Z,5.55
2019-05-20T12:50:18.164Z,4.70
2019-05-20T12:52:46.626Z,2.40
2019-05-20T12:55:15.470Z,1.92
2019-05-20T12:57:43.949Z,1.77
2019-05-20T13:00:14.263Z,1.75
2019-05-20T13:02:42.827Z,1.55
2019-05-20T13:05:11.965Z,2.17
2019-05-20T13:07:40.445Z,1.80
2019-05-20T13:10:26.799Z,1.67
2019-05-20T13:12:39.677Z,1.57
2019-05-20T13:15:09.012Z,4.35
2019-05-20T13:17:42.876Z,2.15
2019-05-20T13:20:08.277Z,1.90
2019-05-20T13:22:37.529Z,2.98
2019-05-20T13:25:09.038Z,6.55
2019-05-20T13:27:37.513Z,3.87
2019-05-20T13:30:08.929Z,2.12
2019-05-20T13:32:37.402Z,1.95
2019-05-20T13:35:09.256Z,2.00
2019-05-20T13:37:37.995Z,2.47
2019-05-20T13:40:07.237Z,2.45
2019-05-20T13:42:35.707Z,2.02
2019-05-20T13:45:05.641Z,1.90
2019-05-20T13:47:34.120Z,2.85
2019-05-20T13:50:02.805Z,2.80
2019-05-20T13:52:31.275Z,2.02
2019-05-20T13:54:59.857Z,2.95
2019-05-20T13:57:28.328Z,6.28
2019-05-20T13:59:56.829Z,1.80
2019-05-20T14:02:25.304Z,1.70
2019-05-20T14:04:53.812Z,3.40
2019-05-20T14:07:22.288Z,2.42
2019-05-20T14:09:50.794Z,2.70
2019-05-20T14:12:19.265Z,3.20
2019-05-20T14:14:47.771Z,2.27
2019-05-20T14:17:16.260Z,2.60
2019-05-20T14:19:44.838Z,2.37
2019-05-20T14:22:13.318Z,4.10
2019-05-20T14:24:41.819Z,3.67
2019-05-20T14:27:10.299Z,2.45
2019-05-20T14:29:38.803Z,3.02
2019-05-20T14:32:07.270Z,1.50
2019-05-20T14:34:35.779Z,3.05
2019-05-20T14:37:04.251Z,1.50
2019-05-20T14:39:32.746Z,1.50
2019-05-20T14:42:01.219Z,2.83
2019-05-20T14:44:29.722Z,1.80
2019-05-20T14:46:58.197Z,1.72
2019-05-20T14:49:26.770Z,1.77
2019-05-20T14:51:55.436Z,3.27
2019-05-20T14:54:23.909Z,1.60
2019-05-20T14:56:52.425Z,3.00
2019-05-20T14:59:20.895Z,1.75
2019-05-20T15:01:49.427Z,1.62
2019-05-20T15:04:17.896Z,1.40
2019-05-20T15:06:46.392Z,1.52
2019-05-20T15:09:14.888Z,3.15
2019-05-20T15:11:43.385Z,2.50
2019-05-20T15:14:11.862Z,1.50
2019-05-20T15:16:40.369Z,2.47
2019-05-20T15:19:08.849Z,1.57
2019-05-20T15:21:37.369Z,1.60
2019-05-20T15:24:05.949Z,1.57
2019-05-20T15:26:34.454Z,1.42
2019-05-20T15:29:04.339Z,1.40
2019-05-20T15:31:33.355Z,2.10
2019-05-20T15:34:01.883Z,1.42
2019-05-20T15:36:30.385Z,1.32
2019-05-20T15:38:58.875Z,1.65
2019-05-20T15:41:27.379Z,2.05
2019-05-20T15:43:55.850Z,3.85
2019-05-20T15:46:25.876Z,1.60
2019-05-20T15:48:54.368Z,2.45
2019-05-20T15:51:22.886Z,1.65
2019-05-20T15:53:51.357Z,1.67
2019-05-20T15:56:19.883Z,4.17
2019-05-20T15:58:48.434Z,1.85
2019-05-20T16:01:16.997Z,2.98
2019-05-20T16:03:45.473Z,2.87
2019-05-20T16:06:13.979Z,2.22
2019-05-20T16:08:42.449Z,2.02
2019-05-20T16:11:10.961Z,2.80
2019-05-20T16:13:39.444Z,2.22
2019-05-20T16:16:07.924Z,2.12
2019-05-20T16:18:36.438Z,3.95
2019-05-20T16:21:04.989Z,2.00
2019-05-20T16:23:33.497Z,2.00
2019-05-20T16:26:01.997Z,1.75
2019-05-20T16:28:30.511Z,2.45
2019-05-20T16:30:58.985Z,6.75
2019-05-20T16:33:27.575Z,4.22
2019-05-20T16:35:56.090Z,1.82
2019-05-20T16:38:24.562Z,2.27
2019-05-20T16:40:53.044Z,2.58
2019-05-20T16:43:21.554Z,1.87
2019-05-20T16:45:50.039Z,2.17
2019-05-20T16:48:18.547Z,3.62
2019-05-20T16:50:47.027Z,2.10
2019-05-20T16:53:15.549Z,2.47
2019-05-20T16:55:44.103Z,4.20
2019-05-20T16:58:12.601Z,3.25
2019-05-20T17:00:41.560Z,3.35
2019-05-20T17:03:10.092Z,3.25
2019-05-20T17:05:38.906Z,2.17
2019-05-20T17:08:07.589Z,2.27
2019-05-20T17:10:36.071Z,2.20
2019-05-20T17:13:04.804Z,2.40
2019-05-20T17:15:33.302Z,3.77
2019-05-20T17:18:01.795Z,2.85
2019-05-20T17:20:30.347Z,2.40
2019-05-20T17:22:58.850Z,3.47
2019-05-20T17:25:27.367Z,2.72
2019-05-20T17:27:55.838Z,3.52
2019-05-20T17:30:24.325Z,2.40
2019-05-20T17:32:52.823Z,3.83
2019-05-20T17:35:21.561Z,2.72
2019-05-20T17:37:50.137Z,2.33
2019-05-20T17:40:19.464Z,4.05
2019-05-20T17:42:48.028Z,3.17
2019-05-20T17:45:17.541Z,3.50
2019-05-20T17:47:46.032Z,4.03
2019-05-20T17:50:17.059Z,2.70
2019-05-20T17:52:45.541Z,3.00
2019-05-20T17:55:14.405Z,3.85
2019-05-20T17:57:42.891Z,3.72
2019-05-20T18:00:18.625Z,3.62
2019-05-20T18:02:47.089Z,3.58
2019-05-20T18:05:15.731Z,4.00
2019-05-20T18:07:44.276Z,3.12
2019-05-20T18:10:13.009Z,2.62
2019-05-20T18:12:41.495Z,4.12
2019-05-20T18:15:10.307Z,4.45
2019-05-20T18:17:38.783Z,5.25
2019-05-20T18:20:07.523Z,4.05
2019-05-20T18:22:36.068Z,3.72
2019-05-20T18:25:08.486Z,3.27
2019-05-20T18:27:36.970Z,3.00
2019-05-20T18:30:07.947Z,3.20
2019-05-20T18:32:38.487Z,3.95
2019-05-20T18:35:07.072Z,4.10
2019-05-20T18:37:35.559Z,6.60
2019-05-20T18:40:13.826Z,3.42
2019-05-20T18:42:35.581Z,4.03
2019-05-20T18:45:06.140Z,3.30
2019-05-20T18:47:34.685Z,5.65
2019-05-20T18:50:04.461Z,4.97
2019-05-20T18:52:33.005Z,5.60
2019-05-20T18:55:01.517Z,3.33
2019-05-20T18:57:29.998Z,4.40
2019-05-20T18:59:58.536Z,5.75
2019-05-20T19:02:26.988Z,5.60
2019-05-20T19:04:55.510Z,5.42
2019-05-20T19:07:23.978Z,6.37
2019-05-20T19:09:52.489Z,4.55
2019-05-20T19:12:20.968Z,3.95
2019-05-20T19:14:49.459Z,6.20
2019-05-20T19:17:17.988Z,4.78
2019-05-20T19:19:46.579Z,4.65
2019-05-20T19:22:15.054Z,5.83
2019-05-20T19:24:43.550Z,4.90
2019-05-20T19:27:12.103Z,6.83
2019-05-20T19:29:40.634Z,6.78
2019-05-20T19:32:09.771Z,4.87
2019-05-20T19:34:38.284Z,6.70
2019-05-20T19:37:06.751Z,5.58
2019-05-20T19:39:35.255Z,4.85
2019-05-20T19:42:03.740Z,4.33
2019-05-20T19:44:32.238Z,4.85
2019-05-20T19:47:00.712Z,6.47
2019-05-20T19:49:29.213Z,6.67
2019-05-20T19:51:57.719Z,6.50
2019-05-20T19:54:26.206Z,10.08
2019-05-20T19:56:54.713Z,14.00
2019-05-20T19:59:23.192Z,15.65
2019-05-20T20:01:51.709Z,14.63
2019-05-20T20:04:20.190Z,14.10
2019-05-20T20:06:48.701Z,12.98
2019-05-20T20:09:18.825Z,16.05
2019-05-20T20:11:47.337Z,15.83
2019-05-20T20:14:15.822Z,14.87
2019-05-20T20:16:44.327Z,10.82
2019-05-20T20:19:12.805Z,11.97
2019-05-20T20:21:41.308Z,10.25
2019-05-20T20:24:09.949Z,9.53
2019-05-20T20:26:38.448Z,9.25
2019-05-20T20:29:06.928Z,6.55
2019-05-20T20:31:35.430Z,9.98
2019-05-20T20:34:04.267Z,5.83
2019-05-20T20:36:32.770Z,6.43
2019-05-20T20:39:01.246Z,9.25
2019-05-20T20:41:29.764Z,10.25
2019-05-20T20:43:58.240Z,10.17
2019-05-20T20:46:27.030Z,10.88
2019-05-20T20:48:55.518Z,10.00
2019-05-20T20:51:24.033Z,10.20
2019-05-20T20:53:52.514Z,8.28
2019-05-20T20:56:25.066Z,10.05
2019-05-20T20:58:51.352Z,9.63
2019-05-20T21:01:19.836Z,10.68
2019-05-20T21:03:48.317Z,9.40
2019-05-20T21:06:16.820Z,9.80
2019-05-20T21:08:45.294Z,7.47
2019-05-20T21:11:13.799Z,5.90
2019-05-20T21:13:42.290Z,7.53
2019-05-20T21:16:10.790Z,7.78
2019-05-20T21:18:39.340Z,9.08
2019-05-20T21:21:07.874Z,8.70
2019-05-20T21:23:38.093Z,5.47
2019-05-20T21:26:06.717Z,7.80
2019-05-20T21:28:35.196Z,5.53
2019-05-20T21:31:03.696Z,4.50
2019-05-20T21:33:32.215Z,3.47
2019-05-20T21:36:00.684Z,4.95
2019-05-20T21:38:29.158Z,3.80
2019-05-20T21:40:57.698Z,4.35
2019-05-20T21:43:26.160Z,3.87
2019-05-20T21:45:54.664Z,4.17
2019-05-20T21:48:23.336Z,3.40
2019-05-20T21:50:51.840Z,4.37
2019-05-20T21:53:22.290Z,3.42
2019-05-20T21:55:50.747Z,3.33
2019-05-20T21:58:19.257Z,3.77
2019-05-20T22:00:54.558Z,2.80
2019-05-20T22:03:24.903Z,4.65
2019-05-20T22:05:53.457Z,3.35
2019-05-20T22:08:21.952Z,4.70
2019-05-20T22:10:50.426Z,4.62
2019-05-20T22:13:18.948Z,3.55
2019-05-20T22:15:47.432Z,3.53
2019-05-20T22:18:15.929Z,3.60
2019-05-20T22:20:44.397Z,4.17
2019-05-20T22:23:16.955Z,3.87
2019-05-20T22:25:47.150Z,4.37
2019-05-20T22:28:15.636Z,5.40
2019-05-20T22:30:44.184Z,5.12
2019-05-20T22:33:12.728Z,5.63
2019-05-20T22:35:41.233Z,6.87
2019-05-20T22:38:09.724Z,5.43
2019-05-20T22:40:38.221Z,4.03
2019-05-20T22:43:06.704Z,3.70
2019-05-20T22:45:35.847Z,3.55
2019-05-20T22:48:04.342Z,5.53
2019-05-20T22:50:32.813Z,4.50
2019-05-20T22:53:01.316Z,3.80
2019-05-20T22:55:29.787Z,4.40
2019-05-20T22:57:58.291Z,5.45
2019-05-20T23:00:26.760Z,5.17
2019-05-20T23:02:55.277Z,4.50
2019-05-20T23:05:23.741Z,4.35
2019-05-20T23:07:52.237Z,6.40
2019-05-20T23:10:20.788Z,4.22
2019-05-20T23:12:49.290Z,4.12
2019-05-20T23:15:17.767Z,7.80
2019-05-20T23:17:46.262Z,5.80
2019-05-20T23:20:14.889Z,5.43
2019-05-20T23:22:43.391Z,5.83
2019-05-20T23:25:12.037Z,6.37
2019-05-20T23:27:40.548Z,6.12
2019-05-20T23:30:09.454Z,5.07
2019-05-20T23:32:37.957Z,6.00
2019-05-20T23:35:07.175Z,6.40
2019-05-20T23:37:35.746Z,5.03
2019-05-20T23:40:06.263Z,5.28
2019-05-20T23:42:34.773Z,5.30
2019-05-20T23:45:04.890Z,6.00
2019-05-20T23:47:33.373Z,5.13
2019-05-20T23:50:01.945Z,4.47
2019-05-20T23:52:30.428Z,4.28
2019-05-20T23:54:58.933Z,8.00
2019-05-20T23:57:27.479Z,4.50
2019-05-20T23:59:55.981Z,6.78
